sensor_id;sensor_type;location;lat;lon;timestamp;P1;durP1;ratioP1;P2;durP2;ratioP2
71759;SDS011;59919;48.112;16.280;2023-08-06T00:01:20;0.50;;;0.20;;
71759;SDS011;59919;48.112;16.280;2023-08-06T00:03:53;0.98;;;0.20;;
71759;SDS011;59919;48.112;16.280;2023-08-06T00:06:24;0.30;;;0.25;;
71759;SDS011;59919;48.112;16.280;2023-08-06T00:09:01;0.38;;;0.20;;
71759;SDS011;59919;48.112;16.280;2023-08-06T00:11:32;0.90;;;0.20;;
71759;SDS011;59919;48.112;16.280;2023-08-06T00:14:03;0.10;;;0.10;;
71759;SDS011;59919;48.112;16.280;2023-08-06T00:16:34;0.20;;;0.20;;
71759;SDS011;59919;48.112;16.280;2023-08-06T00:19:06;0.10;;;0.10;;
71759;SDS011;59919;48.112;16.280;2023-08-06T00:21:40;0.10;;;0.10;;
71759;SDS011;59919;48.112;16.280;2023-08-06T00:24:11;0.20;;;0.20;;
71759;SDS011;59919;48.112;16.280;2023-08-06T00:26:42;0.30;;;0.30;;
71759;SDS011;59919;48.112;16.280;2023-08-06T00:29:13;0.10;;;0.10;;
71759;SDS011;59919;48.112;16.280;2023-08-06T00:31:44;0.30;;;0.30;;
71759;SDS011;59919;48.112;16.280;2023-08-06T00:34:18;0.20;;;0.20;;
71759;SDS011;59919;48.112;16.280;2023-08-06T00:36:49;0.10;;;0.10;;
71759;SDS011;59919;48.112;16.280;2023-08-06T00:39:20;0.80;;;0.30;;
71759;SDS011;59919;48.112;16.280;2023-08-06T00:41:52;0.20;;;0.20;;
71759;SDS011;59919;48.112;16.280;2023-08-06T00:44:26;0.10;;;0.10;;
71759;SDS011;59919;48.112;16.280;2023-08-06T00:46:57;0.28;;;0.20;;
71759;SDS011;59919;48.112;16.280;2023-08-06T00:49:33;0.10;;;0.10;;
71759;SDS011;59919;48.112;16.280;2023-08-06T00:52:05;0.20;;;0.20;;
71759;SDS011;59919;48.112;16.280;2023-08-06T00:54:38;0.20;;;0.20;;
71759;SDS011;59919;48.112;16.280;2023-08-06T00:57:09;0.20;;;0.20;;
71759;SDS011;59919;48.112;16.280;2023-08-06T00:59:41;0.20;;;0.20;;
71759;SDS011;59919;48.112;16.280;2023-08-06T01:02:17;0.55;;;0.10;;
71759;SDS011;59919;48.112;16.280;2023-08-06T01:04:51;0.28;;;0.20;;
71759;SDS011;59919;48.112;16.280;2023-08-06T01:07:43;0.20;;;0.10;;
71759;SDS011;59919;48.112;16.280;2023-08-06T01:10:44;0.20;;;0.20;;
71759;SDS011;59919;48.112;16.280;2023-08-06T01:13:32;0.17;;;0.17;;
71759;SDS011;59919;48.112;16.280;2023-08-06T01:16:09;0.10;;;0.10;;
71759;SDS011;59919;48.112;16.280;2023-08-06T01:18:42;0.20;;;0.13;;
71759;SDS011;59919;48.112;16.280;2023-08-06T01:21:22;0.20;;;0.20;;
71759;SDS011;59919;48.112;16.280;2023-08-06T01:23:56;0.60;;;0.20;;
71759;SDS011;59919;48.112;16.280;2023-08-06T01:32:00;0.20;;;0.20;;
71759;SDS011;59919;48.112;16.280;2023-08-06T01:34:32;0.30;;;0.15;;
71759;SDS011;59919;48.112;16.280;2023-08-06T01:37:05;0.20;;;0.20;;
71759;SDS011;59919;48.112;16.280;2023-08-06T01:39:39;0.10;;;0.10;;
71759;SDS011;59919;48.112;16.280;2023-08-06T01:42:13;0.40;;;0.40;;
71759;SDS011;59919;48.112;16.280;2023-08-06T01:44:49;1.35;;;0.10;;
71759;SDS011;59919;48.112;16.280;2023-08-06T01:47:20;0.10;;;0.10;;
71759;SDS011;59919;48.112;16.280;2023-08-06T01:49:51;0.20;;;0.13;;
71759;SDS011;59919;48.112;16.280;2023-08-06T01:52:23;0.13;;;0.13;;
71759;SDS011;59919;48.112;16.280;2023-08-06T01:54:54;0.30;;;0.30;;
71759;SDS011;59919;48.112;16.280;2023-08-06T01:57:28;0.30;;;0.17;;
71759;SDS011;59919;48.112;16.280;2023-08-06T02:00:03;0.10;;;0.10;;
71759;SDS011;59919;48.112;16.280;2023-08-06T02:02:35;0.10;;;0.10;;
71759;SDS011;59919;48.112;16.280;2023-08-06T02:05:08;0.25;;;0.15;;
71759;SDS011;59919;48.112;16.280;2023-08-06T02:07:42;0.10;;;0.10;;
71759;SDS011;59919;48.112;16.280;2023-08-06T02:10:13;0.20;;;0.20;;
71759;SDS011;59919;48.112;16.280;2023-08-06T02:12:45;0.10;;;0.10;;
71759;SDS011;59919;48.112;16.280;2023-08-06T02:15:18;0.30;;;0.25;;
71759;SDS011;59919;48.112;16.280;2023-08-06T02:17:51;0.20;;;0.20;;
71759;SDS011;59919;48.112;16.280;2023-08-06T02:20:23;0.40;;;0.20;;
71759;SDS011;59919;48.112;16.280;2023-08-06T02:22:56;0.10;;;0.10;;
71759;SDS011;59919;48.112;16.280;2023-08-06T02:25:27;0.20;;;0.20;;
71759;SDS011;59919;48.112;16.280;2023-08-06T02:27:59;0.20;;;0.20;;
71759;SDS011;59919;48.112;16.280;2023-08-06T02:30:30;0.10;;;0.10;;
71759;SDS011;59919;48.112;16.280;2023-08-06T02:33:01;0.15;;;0.10;;
71759;SDS011;59919;48.112;16.280;2023-08-06T02:35:37;0.20;;;0.20;;
71759;SDS011;59919;48.112;16.280;2023-08-06T02:38:11;0.20;;;0.20;;
71759;SDS011;59919;48.112;16.280;2023-08-06T02:40:45;0.40;;;0.22;;
71759;SDS011;59919;48.112;16.280;2023-08-06T02:43:18;0.10;;;0.10;;
71759;SDS011;59919;48.112;16.280;2023-08-06T02:45:52;0.30;;;0.20;;
71759;SDS011;59919;48.112;16.280;2023-08-06T02:48:27;0.28;;;0.28;;
71759;SDS011;59919;48.112;16.280;2023-08-06T02:50:58;0.20;;;0.17;;
71759;SDS011;59919;48.112;16.280;2023-08-06T02:53:30;0.10;;;0.10;;
71759;SDS011;59919;48.112;16.280;2023-08-06T02:56:02;0.20;;;0.20;;
71759;SDS011;59919;48.112;16.280;2023-08-06T02:58:36;0.20;;;0.20;;
71759;SDS011;59919;48.112;16.280;2023-08-06T03:01:07;0.15;;;0.15;;
71759;SDS011;59919;48.112;16.280;2023-08-06T03:03:38;0.20;;;0.20;;
71759;SDS011;59919;48.112;16.280;2023-08-06T03:06:09;0.43;;;0.30;;
71759;SDS011;59919;48.112;16.280;2023-08-06T03:08:43;0.20;;;0.20;;
71759;SDS011;59919;48.112;16.280;2023-08-06T03:11:14;0.20;;;0.20;;
71759;SDS011;59919;48.112;16.280;2023-08-06T03:13:48;0.40;;;0.30;;
71759;SDS011;59919;48.112;16.280;2023-08-06T03:16:19;0.20;;;0.20;;
71759;SDS011;59919;48.112;16.280;2023-08-06T03:18:50;0.40;;;0.20;;
71759;SDS011;59919;48.112;16.280;2023-08-06T03:21:21;0.22;;;0.22;;
71759;SDS011;59919;48.112;16.280;2023-08-06T03:23:53;1.65;;;0.30;;
71759;SDS011;59919;48.112;16.280;2023-08-06T03:26:24;0.20;;;0.20;;
71759;SDS011;59919;48.112;16.280;2023-08-06T03:28:59;0.20;;;0.20;;
71759;SDS011;59919;48.112;16.280;2023-08-06T03:31:31;0.30;;;0.20;;
71759;SDS011;59919;48.112;16.280;2023-08-06T03:34:04;0.50;;;0.30;;
71759;SDS011;59919;48.112;16.280;2023-08-06T03:36:35;0.20;;;0.20;;
71759;SDS011;59919;48.112;16.280;2023-08-06T03:39:06;0.20;;;0.20;;
71759;SDS011;59919;48.112;16.280;2023-08-06T03:41:40;0.30;;;0.20;;
71759;SDS011;59919;48.112;16.280;2023-08-06T03:44:11;0.30;;;0.30;;
71759;SDS011;59919;48.112;16.280;2023-08-06T03:46:44;0.60;;;0.30;;
71759;SDS011;59919;48.112;16.280;2023-08-06T03:49:15;0.85;;;0.20;;
71759;SDS011;59919;48.112;16.280;2023-08-06T03:51:46;0.20;;;0.20;;
71759;SDS011;59919;48.112;16.280;2023-08-06T03:54:19;0.30;;;0.30;;
71759;SDS011;59919;48.112;16.280;2023-08-06T03:56:50;0.30;;;0.30;;
71759;SDS011;59919;48.112;16.280;2023-08-06T03:59:21;0.30;;;0.30;;
71759;SDS011;59919;48.112;16.280;2023-08-06T04:01:52;1.25;;;0.38;;
71759;SDS011;59919;48.112;16.280;2023-08-06T04:04:28;0.30;;;0.30;;
71759;SDS011;59919;48.112;16.280;2023-08-06T04:07:02;0.35;;;0.30;;
71759;SDS011;59919;48.112;16.280;2023-08-06T04:09:33;0.30;;;0.30;;
71759;SDS011;59919;48.112;16.280;2023-08-06T04:12:27;0.30;;;0.30;;
71759;SDS011;59919;48.112;16.280;2023-08-06T04:15:07;0.52;;;0.30;;
71759;SDS011;59919;48.112;16.280;2023-08-06T04:17:39;0.30;;;0.28;;
71759;SDS011;59919;48.112;16.280;2023-08-06T04:20:11;0.73;;;0.30;;
71759;SDS011;59919;48.112;16.280;2023-08-06T04:22:42;0.50;;;0.30;;
71759;SDS011;59919;48.112;16.280;2023-08-06T04:25:13;0.30;;;0.30;;
71759;SDS011;59919;48.112;16.280;2023-08-06T04:27:44;0.40;;;0.35;;
71759;SDS011;59919;48.112;16.280;2023-08-06T04:30:15;0.30;;;0.30;;
71759;SDS011;59919;48.112;16.280;2023-08-06T04:32:46;0.40;;;0.40;;
71759;SDS011;59919;48.112;16.280;2023-08-06T04:35:22;0.30;;;0.30;;
71759;SDS011;59919;48.112;16.280;2023-08-06T04:37:53;0.38;;;0.38;;
71759;SDS011;59919;48.112;16.280;2023-08-06T04:40:24;0.63;;;0.30;;
71759;SDS011;59919;48.112;16.280;2023-08-06T04:42:55;0.50;;;0.32;;
71759;SDS011;59919;48.112;16.280;2023-08-06T04:45:26;0.25;;;0.25;;
71759;SDS011;59919;48.112;16.280;2023-08-06T04:47:57;0.70;;;0.30;;
71759;SDS011;59919;48.112;16.280;2023-08-06T04:50:28;0.30;;;0.30;;
71759;SDS011;59919;48.112;16.280;2023-08-06T04:53:02;0.40;;;0.40;;
71759;SDS011;59919;48.112;16.280;2023-08-06T04:55:34;0.40;;;0.35;;
71759;SDS011;59919;48.112;16.280;2023-08-06T04:58:10;0.40;;;0.40;;
71759;SDS011;59919;48.112;16.280;2023-08-06T05:00:43;0.50;;;0.40;;
71759;SDS011;59919;48.112;16.280;2023-08-06T05:03:14;0.30;;;0.25;;
71759;SDS011;59919;48.112;16.280;2023-08-06T05:05:48;0.30;;;0.30;;
71759;SDS011;59919;48.112;16.280;2023-08-06T05:08:21;0.52;;;0.52;;
71759;SDS011;59919;48.112;16.280;2023-08-06T05:10:54;0.40;;;0.40;;
71759;SDS011;59919;48.112;16.280;2023-08-06T05:13:31;0.30;;;0.30;;
71759;SDS011;59919;48.112;16.280;2023-08-06T05:16:03;0.30;;;0.30;;
71759;SDS011;59919;48.112;16.280;2023-08-06T05:18:34;0.75;;;0.40;;
71759;SDS011;59919;48.112;16.280;2023-08-06T05:21:08;0.30;;;0.30;;
71759;SDS011;59919;48.112;16.280;2023-08-06T05:23:39;0.32;;;0.30;;
71759;SDS011;59919;48.112;16.280;2023-08-06T05:26:12;0.40;;;0.30;;
71759;SDS011;59919;48.112;16.280;2023-08-06T05:28:45;2.75;;;0.45;;
71759;SDS011;59919;48.112;16.280;2023-08-06T05:31:18;0.38;;;0.30;;
71759;SDS011;59919;48.112;16.280;2023-08-06T05:33:50;0.30;;;0.30;;
71759;SDS011;59919;48.112;16.280;2023-08-06T05:36:21;0.50;;;0.50;;
71759;SDS011;59919;48.112;16.280;2023-08-06T05:38:53;0.40;;;0.40;;
71759;SDS011;59919;48.112;16.280;2023-08-06T05:41:24;0.40;;;0.40;;
71759;SDS011;59919;48.112;16.280;2023-08-06T05:43:57;0.40;;;0.40;;
71759;SDS011;59919;48.112;16.280;2023-08-06T05:46:31;0.40;;;0.40;;
71759;SDS011;59919;48.112;16.280;2023-08-06T05:49:04;0.40;;;0.40;;
71759;SDS011;59919;48.112;16.280;2023-08-06T05:51:38;1.40;;;0.50;;
71759;SDS011;59919;48.112;16.280;2023-08-06T05:54:10;0.50;;;0.50;;
71759;SDS011;59919;48.112;16.280;2023-08-06T05:56:41;0.47;;;0.47;;
71759;SDS011;59919;48.112;16.280;2023-08-06T05:59:12;0.40;;;0.40;;
71759;SDS011;59919;48.112;16.280;2023-08-06T06:01:43;0.38;;;0.38;;
71759;SDS011;59919;48.112;16.280;2023-08-06T06:04:18;0.40;;;0.40;;
71759;SDS011;59919;48.112;16.280;2023-08-06T06:06:49;0.40;;;0.40;;
71759;SDS011;59919;48.112;16.280;2023-08-06T06:09:23;0.50;;;0.50;;
71759;SDS011;59919;48.112;16.280;2023-08-06T06:11:57;0.50;;;0.40;;
71759;SDS011;59919;48.112;16.280;2023-08-06T06:14:28;0.30;;;0.30;;
71759;SDS011;59919;48.112;16.280;2023-08-06T06:16:59;0.40;;;0.40;;
71759;SDS011;59919;48.112;16.280;2023-08-06T06:19:31;0.40;;;0.40;;
71759;SDS011;59919;48.112;16.280;2023-08-06T06:22:02;1.17;;;0.50;;
71759;SDS011;59919;48.112;16.280;2023-08-06T06:24:36;0.35;;;0.35;;
71759;SDS011;59919;48.112;16.280;2023-08-06T06:27:07;0.50;;;0.50;;
71759;SDS011;59919;48.112;16.280;2023-08-06T06:29:38;0.93;;;0.40;;
71759;SDS011;59919;48.112;16.280;2023-08-06T06:32:15;0.90;;;0.60;;
71759;SDS011;59919;48.112;16.280;2023-08-06T06:34:46;0.55;;;0.40;;
71759;SDS011;59919;48.112;16.280;2023-08-06T06:37:19;0.50;;;0.40;;
71759;SDS011;59919;48.112;16.280;2023-08-06T06:39:53;0.45;;;0.40;;
71759;SDS011;59919;48.112;16.280;2023-08-06T06:42:25;0.40;;;0.40;;
71759;SDS011;59919;48.112;16.280;2023-08-06T06:44:56;0.43;;;0.40;;
71759;SDS011;59919;48.112;16.280;2023-08-06T06:47:27;0.70;;;0.60;;
71759;SDS011;59919;48.112;16.280;2023-08-06T06:50:01;0.40;;;0.40;;
71759;SDS011;59919;48.112;16.280;2023-08-06T06:52:32;0.47;;;0.40;;
71759;SDS011;59919;48.112;16.280;2023-08-06T06:55:03;0.43;;;0.38;;
71759;SDS011;59919;48.112;16.280;2023-08-06T06:57:40;0.50;;;0.40;;
71759;SDS011;59919;48.112;16.280;2023-08-06T07:00:11;0.65;;;0.50;;
71759;SDS011;59919;48.112;16.280;2023-08-06T07:02:45;0.52;;;0.50;;
71759;SDS011;59919;48.112;16.280;2023-08-06T07:05:16;0.47;;;0.47;;
71759;SDS011;59919;48.112;16.280;2023-08-06T07:07:47;0.55;;;0.55;;
71759;SDS011;59919;48.112;16.280;2023-08-06T07:10:23;0.50;;;0.50;;
71759;SDS011;59919;48.112;16.280;2023-08-06T07:12:54;0.50;;;0.50;;
71759;SDS011;59919;48.112;16.280;2023-08-06T07:15:26;0.55;;;0.47;;
71759;SDS011;59919;48.112;16.280;2023-08-06T07:17:59;0.50;;;0.40;;
71759;SDS011;59919;48.112;16.280;2023-08-06T07:20:37;0.60;;;0.60;;
71759;SDS011;59919;48.112;16.280;2023-08-06T07:23:08;0.40;;;0.40;;
71759;SDS011;59919;48.112;16.280;2023-08-06T07:25:41;0.40;;;0.40;;
71759;SDS011;59919;48.112;16.280;2023-08-06T07:28:15;0.40;;;0.40;;
71759;SDS011;59919;48.112;16.280;2023-08-06T07:30:49;0.35;;;0.35;;
71759;SDS011;59919;48.112;16.280;2023-08-06T07:33:20;0.30;;;0.30;;
71759;SDS011;59919;48.112;16.280;2023-08-06T07:35:52;0.50;;;0.50;;
71759;SDS011;59919;48.112;16.280;2023-08-06T07:38:26;0.40;;;0.32;;
71759;SDS011;59919;48.112;16.280;2023-08-06T07:40:57;1.05;;;0.60;;
71759;SDS011;59919;48.112;16.280;2023-08-06T07:43:31;0.40;;;0.40;;
71759;SDS011;59919;48.112;16.280;2023-08-06T07:46:02;0.57;;;0.40;;
71759;SDS011;59919;48.112;16.280;2023-08-06T07:48:36;0.57;;;0.50;;
71759;SDS011;59919;48.112;16.280;2023-08-06T07:51:08;0.40;;;0.40;;
71759;SDS011;59919;48.112;16.280;2023-08-06T07:56:21;0.30;;;0.30;;
71759;SDS011;59919;48.112;16.280;2023-08-06T07:58:52;0.50;;;0.50;;
71759;SDS011;59919;48.112;16.280;2023-08-06T08:01:23;1.20;;;0.40;;
71759;SDS011;59919;48.112;16.280;2023-08-06T08:03:54;0.70;;;0.43;;
71759;SDS011;59919;48.112;16.280;2023-08-06T08:06:25;1.83;;;0.40;;
71759;SDS011;59919;48.112;16.280;2023-08-06T08:08:56;0.40;;;0.40;;
71759;SDS011;59919;48.112;16.280;2023-08-06T08:11:27;0.40;;;0.40;;
71759;SDS011;59919;48.112;16.280;2023-08-06T08:13:59;0.43;;;0.40;;
71759;SDS011;59919;48.112;16.280;2023-08-06T08:16:30;0.43;;;0.43;;
71759;SDS011;59919;48.112;16.280;2023-08-06T08:19:09;0.47;;;0.47;;
71759;SDS011;59919;48.112;16.280;2023-08-06T08:21:46;1.23;;;0.40;;
71759;SDS011;59919;48.112;16.280;2023-08-06T08:24:17;0.43;;;0.43;;
71759;SDS011;59919;48.112;16.280;2023-08-06T08:26:52;1.38;;;0.60;;
71759;SDS011;59919;48.112;16.280;2023-08-06T08:29:28;0.50;;;0.50;;
71759;SDS011;59919;48.112;16.280;2023-08-06T08:32:06;0.43;;;0.38;;
71759;SDS011;59919;48.112;16.280;2023-08-06T08:34:37;1.85;;;0.52;;
71759;SDS011;59919;48.112;16.280;2023-08-06T08:37:13;0.70;;;0.45;;
71759;SDS011;59919;48.112;16.280;2023-08-06T08:39:44;0.47;;;0.40;;
71759;SDS011;59919;48.112;16.280;2023-08-06T08:42:15;0.55;;;0.55;;
71759;SDS011;59919;48.112;16.280;2023-08-06T08:44:46;0.63;;;0.50;;
71759;SDS011;59919;48.112;16.280;2023-08-06T08:47:21;0.40;;;0.40;;
71759;SDS011;59919;48.112;16.280;2023-08-06T08:49:53;1.45;;;0.50;;
71759;SDS011;59919;48.112;16.280;2023-08-06T08:52:26;0.70;;;0.50;;
71759;SDS011;59919;48.112;16.280;2023-08-06T08:55:01;0.68;;;0.60;;
71759;SDS011;59919;48.112;16.280;2023-08-06T08:57:32;0.40;;;0.40;;
71759;SDS011;59919;48.112;16.280;2023-08-06T09:00:07;0.30;;;0.30;;
71759;SDS011;59919;48.112;16.280;2023-08-06T09:02:38;0.60;;;0.55;;
71759;SDS011;59919;48.112;16.280;2023-08-06T09:05:12;0.40;;;0.35;;
71759;SDS011;59919;48.112;16.280;2023-08-06T09:07:47;0.40;;;0.40;;
71759;SDS011;59919;48.112;16.280;2023-08-06T09:10:19;0.50;;;0.50;;
71759;SDS011;59919;48.112;16.280;2023-08-06T09:12:55;0.50;;;0.45;;
71759;SDS011;59919;48.112;16.280;2023-08-06T09:15:27;0.50;;;0.50;;
71759;SDS011;59919;48.112;16.280;2023-08-06T09:18:00;0.52;;;0.52;;
71759;SDS011;59919;48.112;16.280;2023-08-06T09:20:39;0.52;;;0.40;;
71759;SDS011;59919;48.112;16.280;2023-08-06T09:23:13;0.68;;;0.50;;
71759;SDS011;59919;48.112;16.280;2023-08-06T09:25:44;0.60;;;0.50;;
71759;SDS011;59919;48.112;16.280;2023-08-06T09:28:15;0.40;;;0.40;;
71759;SDS011;59919;48.112;16.280;2023-08-06T09:30:47;0.50;;;0.50;;
71759;SDS011;59919;48.112;16.280;2023-08-06T09:33:22;0.40;;;0.40;;
71759;SDS011;59919;48.112;16.280;2023-08-06T09:35:57;0.50;;;0.50;;
71759;SDS011;59919;48.112;16.280;2023-08-06T09:38:39;1.15;;;0.55;;
71759;SDS011;59919;48.112;16.280;2023-08-06T09:41:13;1.15;;;0.60;;
71759;SDS011;59919;48.112;16.280;2023-08-06T09:43:59;0.40;;;0.40;;
71759;SDS011;59919;48.112;16.280;2023-08-06T09:46:32;1.23;;;0.57;;
71759;SDS011;59919;48.112;16.280;2023-08-06T09:49:03;0.60;;;0.50;;
71759;SDS011;59919;48.112;16.280;2023-08-06T09:51:38;0.60;;;0.50;;
71759;SDS011;59919;48.112;16.280;2023-08-06T09:54:13;1.30;;;0.52;;
71759;SDS011;59919;48.112;16.280;2023-08-06T09:56:51;0.80;;;0.50;;
71759;SDS011;59919;48.112;16.280;2023-08-06T09:59:23;1.02;;;0.75;;
71759;SDS011;59919;48.112;16.280;2023-08-06T10:01:57;0.70;;;0.60;;
71759;SDS011;59919;48.112;16.280;2023-08-06T10:04:29;0.75;;;0.60;;
71759;SDS011;59919;48.112;16.280;2023-08-06T10:07:01;1.15;;;0.70;;
71759;SDS011;59919;48.112;16.280;2023-08-06T10:09:32;1.17;;;0.77;;
71759;SDS011;59919;48.112;16.280;2023-08-06T10:12:06;0.70;;;0.68;;
71759;SDS011;59919;48.112;16.280;2023-08-06T10:14:41;0.75;;;0.60;;
71759;SDS011;59919;48.112;16.280;2023-08-06T10:17:16;0.80;;;0.70;;
71759;SDS011;59919;48.112;16.280;2023-08-06T10:19:58;0.77;;;0.60;;
71759;SDS011;59919;48.112;16.280;2023-08-06T10:22:30;1.60;;;0.60;;
71759;SDS011;59919;48.112;16.280;2023-08-06T10:25:03;0.80;;;0.65;;
71759;SDS011;59919;48.112;16.280;2023-08-06T10:27:53;1.25;;;0.60;;
71759;SDS011;59919;48.112;16.280;2023-08-06T10:33:03;0.88;;;0.80;;
71759;SDS011;59919;48.112;16.280;2023-08-06T10:35:40;0.57;;;0.55;;
71759;SDS011;59919;48.112;16.280;2023-08-06T10:38:12;0.90;;;0.70;;
71759;SDS011;59919;48.112;16.280;2023-08-06T10:43:32;0.88;;;0.65;;
71759;SDS011;59919;48.112;16.280;2023-08-06T10:46:10;0.77;;;0.60;;
71759;SDS011;59919;48.112;16.280;2023-08-06T10:48:47;0.68;;;0.65;;
71759;SDS011;59919;48.112;16.280;2023-08-06T10:51:19;0.85;;;0.70;;
71759;SDS011;59919;48.112;16.280;2023-08-06T10:53:52;0.88;;;0.70;;
71759;SDS011;59919;48.112;16.280;2023-08-06T10:56:24;0.80;;;0.75;;
71759;SDS011;59919;48.112;16.280;2023-08-06T10:58:57;1.10;;;1.00;;
71759;SDS011;59919;48.112;16.280;2023-08-06T11:01:29;1.20;;;0.95;;
71759;SDS011;59919;48.112;16.280;2023-08-06T11:04:05;1.00;;;0.70;;
71759;SDS011;59919;48.112;16.280;2023-08-06T11:06:37;1.30;;;0.98;;
71759;SDS011;59919;48.112;16.280;2023-08-06T11:09:08;0.88;;;0.77;;
71759;SDS011;59919;48.112;16.280;2023-08-06T11:11:40;1.23;;;0.68;;
71759;SDS011;59919;48.112;16.280;2023-08-06T11:14:17;0.73;;;0.60;;
71759;SDS011;59919;48.112;16.280;2023-08-06T11:16:51;0.90;;;0.70;;
71759;SDS011;59919;48.112;16.280;2023-08-06T11:19:26;1.60;;;0.80;;
71759;SDS011;59919;48.112;16.280;2023-08-06T11:21:57;0.70;;;0.60;;
71759;SDS011;59919;48.112;16.280;2023-08-06T11:24:32;1.02;;;0.70;;
71759;SDS011;59919;48.112;16.280;2023-08-06T11:27:10;1.02;;;0.60;;
71759;SDS011;59919;48.112;16.280;2023-08-06T11:29:43;1.23;;;0.77;;
71759;SDS011;59919;48.112;16.280;2023-08-06T11:32:14;0.95;;;0.70;;
71759;SDS011;59919;48.112;16.280;2023-08-06T11:34:45;0.90;;;0.73;;
71759;SDS011;59919;48.112;16.280;2023-08-06T11:37:17;0.77;;;0.70;;
71759;SDS011;59919;48.112;16.280;2023-08-06T11:39:56;0.60;;;0.60;;
71759;SDS011;59919;48.112;16.280;2023-08-06T11:42:31;1.33;;;0.70;;
71759;SDS011;59919;48.112;16.280;2023-08-06T11:45:02;1.25;;;0.80;;
71759;SDS011;59919;48.112;16.280;2023-08-06T11:47:42;0.85;;;0.77;;
71759;SDS011;59919;48.112;16.280;2023-08-06T11:50:29;0.77;;;0.77;;
71759;SDS011;59919;48.112;16.280;2023-08-06T11:53:01;1.20;;;0.85;;
71759;SDS011;59919;48.112;16.280;2023-08-06T11:55:32;1.00;;;0.88;;
71759;SDS011;59919;48.112;16.280;2023-08-06T11:58:08;0.90;;;0.80;;
71759;SDS011;59919;48.112;16.280;2023-08-06T12:00:46;1.05;;;0.77;;
71759;SDS011;59919;48.112;16.280;2023-08-06T12:03:19;0.95;;;0.77;;
71759;SDS011;59919;48.112;16.280;2023-08-06T12:05:59;2.35;;;0.70;;
71759;SDS011;59919;48.112;16.280;2023-08-06T12:08:30;1.10;;;0.70;;
71759;SDS011;59919;48.112;16.280;2023-08-06T12:11:03;0.60;;;0.60;;
71759;SDS011;59919;48.112;16.280;2023-08-06T12:13:37;1.63;;;0.90;;
71759;SDS011;59919;48.112;16.280;2023-08-06T12:16:08;0.80;;;0.70;;
71759;SDS011;59919;48.112;16.280;2023-08-06T12:18:50;0.98;;;0.80;;
71759;SDS011;59919;48.112;16.280;2023-08-06T12:21:21;0.80;;;0.73;;
71759;SDS011;59919;48.112;16.280;2023-08-06T12:23:52;1.10;;;0.82;;
71759;SDS011;59919;48.112;16.280;2023-08-06T12:26:23;1.02;;;0.90;;
71759;SDS011;59919;48.112;16.280;2023-08-06T12:28:54;1.50;;;0.70;;
71759;SDS011;59919;48.112;16.280;2023-08-06T12:31:28;0.60;;;0.60;;
71759;SDS011;59919;48.112;16.280;2023-08-06T12:34:02;1.67;;;0.70;;
71759;SDS011;59919;48.112;16.280;2023-08-06T12:36:33;0.90;;;0.63;;
71759;SDS011;59919;48.112;16.280;2023-08-06T12:39:04;1.38;;;0.90;;
71759;SDS011;59919;48.112;16.280;2023-08-06T12:41:35;1.02;;;0.70;;
71759;SDS011;59919;48.112;16.280;2023-08-06T12:44:07;0.80;;;0.80;;
71759;SDS011;59919;48.112;16.280;2023-08-06T12:46:40;0.60;;;0.60;;
71759;SDS011;59919;48.112;16.280;2023-08-06T12:49:16;0.60;;;0.60;;
71759;SDS011;59919;48.112;16.280;2023-08-06T12:54:24;0.95;;;0.70;;
71759;SDS011;59919;48.112;16.280;2023-08-06T12:56:57;0.85;;;0.70;;
71759;SDS011;59919;48.112;16.280;2023-08-06T12:59:30;0.70;;;0.70;;
71759;SDS011;59919;48.112;16.280;2023-08-06T13:02:03;1.13;;;1.00;;
71759;SDS011;59919;48.112;16.280;2023-08-06T13:04:38;0.88;;;0.80;;
71759;SDS011;59919;48.112;16.280;2023-08-06T13:07:10;1.00;;;0.85;;
71759;SDS011;59919;48.112;16.280;2023-08-06T13:09:44;0.80;;;0.68;;
71759;SDS011;59919;48.112;16.280;2023-08-06T13:12:20;0.97;;;0.87;;
71759;SDS011;59919;48.112;16.280;2023-08-06T13:14:53;1.25;;;0.63;;
71759;SDS011;59919;48.112;16.280;2023-08-06T13:20:04;0.90;;;0.80;;
71759;SDS011;59919;48.112;16.280;2023-08-06T13:22:35;0.70;;;0.70;;
71759;SDS011;59919;48.112;16.280;2023-08-06T13:25:06;0.60;;;0.60;;
71759;SDS011;59919;48.112;16.280;2023-08-06T13:27:37;0.70;;;0.70;;
71759;SDS011;59919;48.112;16.280;2023-08-06T13:30:09;1.00;;;0.90;;
71759;SDS011;59919;48.112;16.280;2023-08-06T13:32:40;1.23;;;0.70;;
71759;SDS011;59919;48.112;16.280;2023-08-06T13:35:11;1.83;;;0.70;;
71759;SDS011;59919;48.112;16.280;2023-08-06T13:37:42;1.55;;;0.95;;
71759;SDS011;59919;48.112;16.280;2023-08-06T13:40:13;0.80;;;0.80;;
71759;SDS011;59919;48.112;16.280;2023-08-06T13:42:47;0.88;;;0.82;;
71759;SDS011;59919;48.112;16.280;2023-08-06T13:45:21;0.65;;;0.63;;
71759;SDS011;59919;48.112;16.280;2023-08-06T13:47:55;2.28;;;0.82;;
71759;SDS011;59919;48.112;16.280;2023-08-06T13:50:26;1.25;;;0.70;;
71759;SDS011;59919;48.112;16.280;2023-08-06T13:52:58;0.70;;;0.60;;
71759;SDS011;59919;48.112;16.280;2023-08-06T13:55:34;0.93;;;0.80;;
71759;SDS011;59919;48.112;16.280;2023-08-06T13:58:08;1.00;;;0.80;;
71759;SDS011;59919;48.112;16.280;2023-08-06T14:00:39;0.70;;;0.60;;
71759;SDS011;59919;48.112;16.280;2023-08-06T14:03:12;0.95;;;0.80;;
71759;SDS011;59919;48.112;16.280;2023-08-06T14:05:46;0.80;;;0.80;;
71759;SDS011;59919;48.112;16.280;2023-08-06T14:08:17;1.20;;;0.88;;
71759;SDS011;59919;48.112;16.280;2023-08-06T14:10:49;0.73;;;0.65;;
71759;SDS011;59919;48.112;16.280;2023-08-06T14:13:21;0.60;;;0.60;;
71759;SDS011;59919;48.112;16.280;2023-08-06T14:15:55;1.30;;;0.75;;
71759;SDS011;59919;48.112;16.280;2023-08-06T14:18:26;0.95;;;0.75;;
71759;SDS011;59919;48.112;16.280;2023-08-06T14:21:00;1.08;;;0.80;;
71759;SDS011;59919;48.112;16.280;2023-08-06T14:23:34;0.70;;;0.70;;
71759;SDS011;59919;48.112;16.280;2023-08-06T14:26:05;1.33;;;0.80;;
71759;SDS011;59919;48.112;16.280;2023-08-06T14:28:36;0.60;;;0.60;;
71759;SDS011;59919;48.112;16.280;2023-08-06T14:31:11;0.60;;;0.60;;
71759;SDS011;59919;48.112;16.280;2023-08-06T14:33:46;0.63;;;0.60;;
71759;SDS011;59919;48.112;16.280;2023-08-06T14:36:22;0.70;;;0.70;;
71759;SDS011;59919;48.112;16.280;2023-08-06T14:38:54;0.93;;;0.80;;
71759;SDS011;59919;48.112;16.280;2023-08-06T14:41:25;0.90;;;0.80;;
71759;SDS011;59919;48.112;16.280;2023-08-06T14:43:58;0.60;;;0.60;;
71759;SDS011;59919;48.112;16.280;2023-08-06T14:46:29;0.90;;;0.60;;
71759;SDS011;59919;48.112;16.280;2023-08-06T14:49:05;0.80;;;0.57;;
71759;SDS011;59919;48.112;16.280;2023-08-06T14:51:36;0.65;;;0.60;;
71759;SDS011;59919;48.112;16.280;2023-08-06T14:54:09;0.85;;;0.60;;
71759;SDS011;59919;48.112;16.280;2023-08-06T14:56:43;0.90;;;0.60;;
71759;SDS011;59919;48.112;16.280;2023-08-06T14:59:16;0.93;;;0.55;;
71759;SDS011;59919;48.112;16.280;2023-08-06T15:01:47;0.60;;;0.60;;
71759;SDS011;59919;48.112;16.280;2023-08-06T15:04:18;1.65;;;0.65;;
71759;SDS011;59919;48.112;16.280;2023-08-06T15:06:56;0.60;;;0.60;;
71759;SDS011;59919;48.112;16.280;2023-08-06T15:09:27;1.55;;;0.70;;
71759;SDS011;59919;48.112;16.280;2023-08-06T15:12:04;0.80;;;0.60;;
71759;SDS011;59919;48.112;16.280;2023-08-06T15:14:35;1.02;;;0.75;;
71759;SDS011;59919;48.112;16.280;2023-08-06T15:17:06;0.52;;;0.52;;
71759;SDS011;59919;48.112;16.280;2023-08-06T15:19:38;0.60;;;0.50;;
71759;SDS011;59919;48.112;16.280;2023-08-06T15:22:11;0.50;;;0.50;;
71759;SDS011;59919;48.112;16.280;2023-08-06T15:24:45;0.43;;;0.40;;
71759;SDS011;59919;48.112;16.280;2023-08-06T15:27:22;0.43;;;0.43;;